Time;durP1;ratioP1;P1;durP2;ratioP2;P2;SDS_P1;SDS_P2;PMS_P1;PMS_P2;Temp;Humidity;BMP_temperature;BMP_pressure;BME280_temperature;BME280_humidity;BME280_pressure;Samples;Min_cycle;Max_cycle;Signal;HPM_P1;HPM_P2
2022/06/28 00:02:00;;;;;;;0.68;0.55;;;13.10;99.90;;;;;;5069415;28;20139;-69
2022/06/28 00:04:26;;;;;;;0.40;0.40;;;13.30;99.90;;;;;;5080901;28;20724;-69
2022/06/28 00:06:52;;;;;;;0.40;0.40;;;13.00;99.90;;;;;;5086508;28;20036;-69
2022/06/28 00:09:17;;;;;;;0.70;0.60;;;13.00;99.90;;;;;;5089058;28;20414;-69
2022/06/28 00:11:44;;;;;;;0.50;0.50;;;13.10;99.90;;;;;;5095038;28;20044;-69
2022/06/28 00:16:56;;;;;;;0.77;0.63;;;13.00;99.90;;;;;;5079283;28;20059;-69
2022/06/28 00:19:22;;;;;;;0.50;0.50;;;13.10;99.90;;;;;;5092864;28;20069;-69
2022/06/28 00:21:48;;;;;;;0.38;0.38;;;13.00;99.90;;;;;;5086698;28;20040;-69
2022/06/28 00:24:14;;;;;;;0.55;0.55;;;12.90;99.90;;;;;;5073771;28;20506;-69
2022/06/28 00:26:41;;;;;;;0.50;0.50;;;13.00;99.90;;;;;;5091143;28;20040;-69
2022/06/28 00:29:07;;;;;;;0.45;0.40;;;12.90;99.90;;;;;;5073437;28;20036;-70
2022/06/28 00:31:32;;;;;;;0.55;0.50;;;12.90;99.90;;;;;;5085997;28;20883;-69
2022/06/28 00:33:58;;;;;;;0.60;0.60;;;12.90;99.90;;;;;;5086518;28;20470;-69
2022/06/28 00:36:24;;;;;;;0.50;0.50;;;12.70;99.90;;;;;;5093117;28;20043;-69
2022/06/28 00:38:49;;;;;;;0.65;0.57;;;12.70;99.90;;;;;;5098380;28;20474;-69
2022/06/28 00:41:15;;;;;;;0.70;0.70;;;12.60;99.90;;;;;;5094453;28;20494;-69
2022/06/28 00:43:41;;;;;;;0.80;0.70;;;12.60;99.90;;;;;;5084312;28;20070;-69
2022/06/28 00:46:08;;;;;;;0.57;0.55;;;12.60;99.90;;;;;;5083039;28;20032;-69
2022/06/28 00:48:34;;;;;;;0.70;0.70;;;12.60;99.90;;;;;;5074916;28;20047;-69
2022/06/28 00:51:01;;;;;;;0.77;0.70;;;12.70;99.90;;;;;;5084253;28;20127;-69
2022/06/28 00:53:27;;;;;;;1.15;0.70;;;12.60;99.90;;;;;;5092667;28;20115;-69
2022/06/28 00:55:53;;;;;;;;;;;12.50;99.90;;;;;;5093586;28;20047;-69
2022/06/28 00:58:19;;;;;;;1.17;0.80;;;12.70;99.90;;;;;;5069684;28;19931;-69
2022/06/28 01:00:49;;;;;;;0.77;0.70;;;12.60;99.90;;;;;;5073486;28;20440;-69
2022/06/28 01:03:20;;;;;;;0.70;0.70;;;12.40;99.90;;;;;;5090447;28;20415;-69
2022/06/28 01:05:47;;;;;;;0.65;0.65;;;12.50;99.90;;;;;;5085810;28;20048;-69
2022/06/28 01:08:13;;;;;;;0.77;0.70;;;12.60;99.90;;;;;;5089132;28;20044;-70
2022/06/28 01:10:40;;;;;;;0.60;0.60;;;12.50;99.90;;;;;;5091992;28;20058;-69
2022/06/28 01:13:06;;;;;;;0.50;0.50;;;12.40;99.90;;;;;;5090745;28;20036;-69
2022/06/28 01:15:33;;;;;;;0.68;0.60;;;12.30;99.90;;;;;;5091060;28;20124;-69
2022/06/28 01:18:03;;;;;;;0.30;0.30;;;12.40;99.90;;;;;;5073415;28;20043;-69
2022/06/28 01:20:29;;;;;;;0.63;0.63;;;12.20;99.90;;;;;;5093017;28;20054;-69
2022/06/28 01:22:55;;;;;;;0.50;0.45;;;12.30;99.90;;;;;;5091859;28;20032;-69
2022/06/28 01:25:22;;;;;;;0.40;0.40;;;12.20;99.90;;;;;;5091099;28;20488;-69
2022/06/28 01:27:48;;;;;;;0.20;0.20;;;12.20;99.90;;;;;;5094828;28;20401;-69
2022/06/28 01:30:15;;;;;;;0.70;0.50;;;12.30;99.90;;;;;;5091233;28;20043;-69
2022/06/28 01:32:41;;;;;;;0.40;0.40;;;12.20;99.90;;;;;;5091220;28;20064;-69
2022/06/28 01:35:08;;;;;;;0.32;0.32;;;12.40;99.90;;;;;;5070474;28;20044;-69
2022/06/28 01:37:35;;;;;;;0.43;0.40;;;12.30;99.90;;;;;;5094019;28;20039;-69
2022/06/28 01:40:03;;;;;;;0.60;0.60;;;12.40;99.90;;;;;;5093784;28;20494;-70
2022/06/28 01:42:29;;;;;;;0.60;0.60;;;12.40;99.90;;;;;;5098357;28;20131;-69
2022/06/28 01:44:56;;;;;;;;;;;12.20;99.90;;;;;;5082639;28;20105;-69
2022/06/28 01:47:24;;;;;;;0.30;0.30;;;12.20;99.90;;;;;;5088960;28;19988;-69
2022/06/28 01:49:49;;;;;;;0.30;0.30;;;12.30;99.90;;;;;;5088141;28;20067;-69
2022/06/28 01:52:16;;;;;;;0.50;0.50;;;12.30;99.90;;;;;;5089771;28;20105;-69
2022/06/28 01:54:43;;;;;;;0.70;0.60;;;12.30;99.90;;;;;;5089987;28;20051;-69
2022/06/28 01:57:08;;;;;;;0.57;0.57;;;12.30;99.90;;;;;;5073823;28;20074;-69
2022/06/28 01:59:36;;;;;;;0.60;0.60;;;12.10;99.90;;;;;;5079942;28;20083;-69
2022/06/28 02:02:02;;;;;;;1.05;0.85;;;12.30;99.90;;;;;;5090493;28;20063;-69
2022/06/28 02:04:29;;;;;;;0.60;0.60;;;12.10;99.90;;;;;;5096310;28;20043;-69
2022/06/28 02:06:56;;;;;;;0.52;0.50;;;12.20;99.90;;;;;;5073803;28;20035;-69
2022/06/28 02:09:22;;;;;;;0.52;0.52;;;12.20;99.90;;;;;;5088996;28;20035;-69
2022/06/28 02:11:48;;;;;;;;;;;12.00;99.90;;;;;;5093807;28;20427;-69
2022/06/28 02:14:14;;;;;;;0.60;0.50;;;12.00;99.90;;;;;;5077261;28;20348;-69
2022/06/28 02:16:40;;;;;;;0.50;0.50;;;12.20;99.90;;;;;;5094242;28;20064;-69
2022/06/28 02:19:06;;;;;;;0.70;0.55;;;12.20;99.90;;;;;;5072052;28;20130;-69
2022/06/28 02:21:39;;;;;;;0.45;0.45;;;12.20;99.90;;;;;;5095474;28;20119;-69
2022/06/28 02:24:06;;;;;;;0.50;0.50;;;12.00;99.90;;;;;;5098105;28;20036;-69
2022/06/28 02:26:32;;;;;;;0.47;0.47;;;12.10;99.90;;;;;;5087694;28;20680;-69
2022/06/28 02:29:03;;;;;;;1.05;0.40;;;12.10;99.90;;;;;;5077597;28;20084;-69
2022/06/28 02:31:29;;;;;;;0.50;0.50;;;12.10;99.90;;;;;;5082312;28;20037;-69
2022/06/28 02:33:55;;;;;;;0.40;0.40;;;11.90;99.90;;;;;;5089640;28;20523;-69
2022/06/28 02:41:50;;;;;;;0.55;0.50;;;11.90;99.90;;;;;;5083801;28;20056;-69
2022/06/28 02:44:16;;;;;;;0.40;0.40;;;12.10;99.90;;;;;;5083245;28;20056;-69
2022/06/28 02:46:42;;;;;;;0.40;0.40;;;12.10;99.90;;;;;;5089350;28;20036;-69
2022/06/28 02:49:08;;;;;;;0.40;0.38;;;12.10;99.90;;;;;;5078137;28;20092;-69
2022/06/28 02:51:33;;;;;;;0.40;0.40;;;12.10;99.90;;;;;;5062095;28;20167;-69
2022/06/28 02:53:59;;;;;;;0.40;0.40;;;11.90;99.90;;;;;;5094688;28;20044;-69
2022/06/28 02:56:25;;;;;;;0.65;0.30;;;12.10;99.90;;;;;;5106766;28;20116;-69
2022/06/28 02:58:51;;;;;;;0.50;0.50;;;12.10;99.90;;;;;;5105725;28;20071;-69
2022/06/28 03:01:17;;;;;;;0.50;0.50;;;11.90;99.90;;;;;;5109993;28;20411;-69
2022/06/28 03:03:43;;;;;;;0.60;0.50;;;12.10;99.90;;;;;;5086991;28;20406;-69
2022/06/28 03:06:08;;;;;;;0.40;0.40;;;12.10;99.90;;;;;;5066722;28;20047;-69
2022/06/28 03:08:34;;;;;;;0.43;0.43;;;12.00;99.90;;;;;;5088683;28;20036;-69
2022/06/28 03:11:00;;;;;;;0.65;0.57;;;11.90;99.90;;;;;;5062287;28;20040;-69
2022/06/28 03:13:25;;;;;;;0.57;0.50;;;11.90;99.90;;;;;;5087327;28;20097;-69
2022/06/28 03:15:51;;;;;;;0.70;0.68;;;11.90;99.90;;;;;;5086711;28;20066;-69
2022/06/28 03:18:17;;;;;;;0.70;0.43;;;12.00;99.90;;;;;;5095814;28;20087;-69
2022/06/28 03:20:44;;;;;;;0.75;0.73;;;11.80;99.90;;;;;;5093908;28;20130;-69
2022/06/28 03:23:09;;;;;;;0.60;0.50;;;11.80;99.90;;;;;;5084122;28;20056;-69
2022/06/28 03:25:35;;;;;;;0.70;0.60;;;11.90;99.90;;;;;;5088141;28;20410;-69
2022/06/28 03:28:03;;;;;;;0.47;0.47;;;11.80;99.90;;;;;;5071451;28;20036;-69
2022/06/28 03:30:30;;;;;;;0.60;0.50;;;12.00;99.90;;;;;;5065383;28;20040;-69
2022/06/28 03:32:56;;;;;;;0.60;0.60;;;11.80;99.90;;;;;;5086637;28;20040;-69
2022/06/28 03:35:21;;;;;;;0.40;0.40;;;11.90;99.90;;;;;;5087749;28;20097;-69
2022/06/28 03:37:47;;;;;;;0.50;0.50;;;11.70;99.90;;;;;;5080640;28;20058;-69
2022/06/28 03:40:13;;;;;;;0.80;0.60;;;11.80;99.90;;;;;;5089524;28;20544;-69
2022/06/28 03:42:38;;;;;;;0.70;0.70;;;11.90;99.90;;;;;;5089202;28;20516;-69
2022/06/28 03:45:05;;;;;;;1.13;0.70;;;11.80;99.90;;;;;;5068765;28;20040;-69
2022/06/28 03:47:31;;;;;;;0.60;0.60;;;11.80;99.90;;;;;;5089354;28;20119;-70
2022/06/28 03:49:56;;;;;;;0.80;0.70;;;12.00;99.90;;;;;;5086776;28;20123;-69
2022/06/28 03:52:28;;;;;;;0.85;0.70;;;11.90;99.90;;;;;;5093961;28;20079;-69
2022/06/28 03:54:58;;;;;;;0.70;0.70;;;12.10;99.90;;;;;;5089087;28;20089;-69
2022/06/28 03:57:25;;;;;;;0.75;0.65;;;11.90;99.90;;;;;;5089954;28;20059;-69
2022/06/28 03:59:51;;;;;;;1.00;0.65;;;12.10;99.90;;;;;;5088099;28;20395;-69
2022/06/28 04:02:17;;;;;;;0.70;0.70;;;12.10;99.90;;;;;;5077494;28;20048;-69
2022/06/28 04:04:43;;;;;;;0.80;0.80;;;12.00;99.90;;;;;;5087150;28;20036;-69
2022/06/28 04:07:08;;;;;;;0.85;0.70;;;12.00;99.90;;;;;;5089131;28;20074;-69
2022/06/28 04:09:34;;;;;;;0.75;0.75;;;12.00;99.90;;;;;;5090623;28;20133;-69
2022/06/28 04:12:00;;;;;;;0.68;0.60;;;11.90;99.90;;;;;;5087718;28;20039;-69
2022/06/28 04:14:26;;;;;;;1.10;0.80;;;12.00;99.90;;;;;;5086231;28;20059;-69
2022/06/28 04:16:51;;;;;;;1.23;0.88;;;12.10;99.90;;;;;;5088085;28;20055;-69
2022/06/28 04:19:17;;;;;;;1.25;0.80;;;12.10;99.90;;;;;;5087697;28;20048;-69
2022/06/28 04:21:42;;;;;;;0.82;0.65;;;11.90;99.90;;;;;;5071667;28;20048;-69
2022/06/28 04:24:08;;;;;;;0.50;0.50;;;11.90;99.90;;;;;;5087121;28;20563;-69
2022/06/28 04:26:34;;;;;;;0.60;0.60;;;11.90;99.90;;;;;;5088722;28;20075;-69
2022/06/28 04:29:00;;;;;;;1.10;0.70;;;12.10;99.90;;;;;;5068953;28;20055;-69
2022/06/28 04:31:26;;;;;;;0.60;0.60;;;12.00;99.90;;;;;;5088114;28;20044;-69
2022/06/28 04:33:52;;;;;;;0.40;0.40;;;12.00;99.90;;;;;;5087206;28;20096;-69
2022/06/28 04:36:18;;;;;;;0.60;0.60;;;12.20;99.90;;;;;;5089579;28;20080;-69
2022/06/28 04:38:43;;;;;;;0.50;0.50;;;12.10;99.90;;;;;;5086924;28;20067;-69
2022/06/28 04:41:09;;;;;;;0.52;0.50;;;12.10;99.90;;;;;;5086470;28;20036;-69
2022/06/28 04:43:34;;;;;;;0.50;0.40;;;12.10;99.90;;;;;;5083396;28;20043;-70
2022/06/28 04:46:00;;;;;;;0.43;0.40;;;12.10;99.90;;;;;;5091779;28;20032;-69
2022/06/28 04:48:26;;;;;;;0.68;0.50;;;12.40;99.90;;;;;;5087234;28;20508;-69
2022/06/28 04:50:51;;;;;;;0.55;0.38;;;12.40;99.90;;;;;;5086322;28;20028;-69
2022/06/28 04:53:17;;;;;;;0.40;0.40;;;12.40;99.90;;;;;;5088007;28;20036;-69
2022/06/28 04:55:43;;;;;;;0.50;0.40;;;12.30;99.90;;;;;;5092320;28;20031;-69
2022/06/28 04:58:08;;;;;;;0.40;0.40;;;12.50;99.90;;;;;;5091660;28;20048;-69
2022/06/28 05:00:34;;;;;;;0.50;0.40;;;12.50;99.90;;;;;;5088612;28;20048;-69
2022/06/28 05:03:00;;;;;;;0.40;0.40;;;12.40;99.90;;;;;;5085121;28;20052;-69
2022/06/28 05:05:26;;;;;;;0.20;0.20;;;12.60;99.90;;;;;;5087805;28;20463;-69
2022/06/28 05:07:51;;;;;;;0.30;0.30;;;12.50;99.90;;;;;;5088439;28;20039;-69
2022/06/28 05:10:17;;;;;;;0.25;0.25;;;12.50;99.90;;;;;;5068876;28;20063;-68
2022/06/28 05:12:43;;;;;;;0.47;0.35;;;12.50;99.90;;;;;;5084631;28;20039;-68
2022/06/28 05:15:09;;;;;;;0.20;0.20;;;12.60;99.90;;;;;;5084971;28;20135;-70
2022/06/28 05:17:35;;;;;;;0.40;0.40;;;12.90;99.90;;;;;;5087171;28;20047;-69
2022/06/28 05:20:02;;;;;;;0.35;0.30;;;12.80;99.90;;;;;;5072497;28;20062;-69
2022/06/28 05:22:28;;;;;;;0.63;0.32;;;12.80;99.90;;;;;;5092403;28;20089;-69
2022/06/28 05:24:54;;;;;;;0.52;0.30;;;13.00;99.90;;;;;;5096016;28;20112;-69
2022/06/28 05:27:20;;;;;;;0.40;0.40;;;12.90;99.90;;;;;;5091175;28;20044;-69
2022/06/28 05:29:46;;;;;;;0.30;0.30;;;13.20;99.90;;;;;;5091992;28;20040;-69
2022/06/28 05:32:12;;;;;;;0.70;0.50;;;13.00;99.90;;;;;;5091674;28;20123;-69
2022/06/28 05:34:38;;;;;;;0.32;0.32;;;13.30;99.90;;;;;;5090271;28;20044;-69
2022/06/28 05:37:05;;;;;;;0.52;0.35;;;13.10;99.90;;;;;;5071244;28;20071;-69
2022/06/28 05:39:31;;;;;;;0.60;0.60;;;13.20;99.90;;;;;;5084473;28;20043;-69
2022/06/28 05:41:58;;;;;;;0.43;0.43;;;13.60;99.90;;;;;;5082910;28;20134;-69
2022/06/28 05:44:24;;;;;;;0.40;0.30;;;13.70;99.90;;;;;;5084521;28;20173;-70
2022/06/28 05:46:51;;;;;;;0.22;0.22;;;13.50;99.90;;;;;;5074475;28;20149;-70
2022/06/28 05:49:17;;;;;;;0.17;0.17;;;13.90;99.90;;;;;;5091553;28;20040;-70
2022/06/28 05:51:43;;;;;;;0.30;0.30;;;13.90;99.90;;;;;;5091056;28;20031;-70
2022/06/28 05:54:09;;;;;;;0.32;0.32;;;14.00;99.90;;;;;;5098827;28;20089;-70
2022/06/28 05:56:36;;;;;;;1.08;0.60;;;13.80;99.90;;;;;;5093825;28;20028;-70
2022/06/28 05:59:04;;;;;;;;;;;14.20;99.90;;;;;;5091756;28;20043;-70
2022/06/28 06:01:30;;;;;;;0.60;0.50;;;14.00;99.90;;;;;;5091057;28;20014;-71
2022/06/28 06:03:57;;;;;;;0.73;0.50;;;14.20;99.90;;;;;;5112214;27;20220;-70
2022/06/28 06:06:24;;;;;;;0.77;0.50;;;14.40;99.90;;;;;;5100890;28;20167;-70
2022/06/28 06:08:51;;;;;;;0.40;0.40;;;14.30;99.90;;;;;;5094302;28;20042;-71
2022/06/28 06:11:17;;;;;;;0.65;0.30;;;14.40;99.90;;;;;;5096187;28;20495;-69
2022/06/28 06:13:43;;;;;;;0.60;0.40;;;14.60;99.90;;;;;;5103447;28;20040;-70
2022/06/28 06:16:09;;;;;;;0.47;0.45;;;14.60;99.90;;;;;;5074713;28;20471;-70
2022/06/28 06:18:34;;;;;;;0.65;0.43;;;14.80;99.90;;;;;;5086156;28;20043;-70
2022/06/28 06:21:00;;;;;;;0.85;0.52;;;14.80;99.90;;;;;;5067829;28;20035;-70
2022/06/28 06:23:26;;;;;;;0.40;0.35;;;15.00;99.90;;;;;;5095163;27;20458;-71
2022/06/28 06:25:52;;;;;;;1.10;0.50;;;15.10;99.90;;;;;;5107156;28;20047;-70
2022/06/28 06:28:18;;;;;;;0.70;0.60;;;15.30;99.90;;;;;;5113446;27;20046;-70
2022/06/28 06:30:43;;;;;;;0.60;0.60;;;15.30;99.90;;;;;;5093882;28;20047;-70
2022/06/28 06:33:09;;;;;;;1.05;0.40;;;15.50;99.90;;;;;;5092670;28;20531;-70
2022/06/28 06:35:35;;;;;;;0.32;0.30;;;15.50;99.90;;;;;;5092922;28;20043;-71
2022/06/28 06:38:00;;;;;;;0.30;0.30;;;15.70;99.90;;;;;;5089106;28;20051;-70
2022/06/28 06:40:27;;;;;;;1.00;0.52;;;15.70;99.90;;;;;;5093041;28;20035;-71
2022/06/28 06:42:53;;;;;;;0.40;0.40;;;15.90;99.90;;;;;;5072089;28;20502;-70
2022/06/28 06:45:18;;;;;;;1.20;0.77;;;15.90;99.90;;;;;;5057294;28;20076;-71
2022/06/28 06:47:44;;;;;;;1.45;0.50;;;16.00;99.90;;;;;;5090640;28;20467;-71
2022/06/28 06:50:10;;;;;;;0.75;0.52;;;16.20;99.90;;;;;;5089447;28;20092;-71
2022/06/28 06:52:36;;;;;;;0.70;0.50;;;16.20;99.90;;;;;;5067706;28;20096;-71
2022/06/28 06:55:02;;;;;;;1.35;0.50;;;16.20;99.90;;;;;;5093172;28;20058;-71
2022/06/28 06:57:28;;;;;;;0.60;0.40;;;16.30;99.90;;;;;;5081877;28;20043;-71
2022/06/28 06:59:54;;;;;;;0.93;0.50;;;16.50;99.90;;;;;;5090159;28;20652;-71
2022/06/28 07:02:20;;;;;;;0.85;0.60;;;16.50;99.90;;;;;;5077170;27;20108;-71
2022/06/28 07:04:46;;;;;;;1.05;0.40;;;16.50;99.90;;;;;;5103759;28;20043;-71
2022/06/28 07:07:11;;;;;;;0.60;0.40;;;16.60;99.90;;;;;;5059773;28;20206;-71
2022/06/28 07:09:37;;;;;;;1.42;0.50;;;16.90;99.90;;;;;;5089729;28;20039;-71
2022/06/28 07:12:04;;;;;;;1.33;0.70;;;17.10;99.90;;;;;;5091376;27;20043;-71
2022/06/28 07:14:29;;;;;;;1.10;0.70;;;17.30;99.90;;;;;;5080730;28;20082;-71
2022/06/28 07:16:55;;;;;;;0.98;0.50;;;17.30;99.90;;;;;;5070231;28;20093;-71
2022/06/28 07:19:21;;;;;;;1.00;0.32;;;17.50;99.90;;;;;;5071050;28;20080;-71
2022/06/28 07:21:46;;;;;;;0.90;0.70;;;17.50;99.90;;;;;;5089646;28;20039;-71
2022/06/28 07:24:13;;;;;;;1.13;0.65;;;17.60;99.90;;;;;;5073654;28;20117;-70
2022/06/28 07:26:39;;;;;;;0.95;0.50;;;17.80;99.90;;;;;;5089612;28;20043;-71
2022/06/28 07:29:04;;;;;;;;;;;18.00;99.90;;;;;;5084165;28;20039;-71
2022/06/28 07:31:33;;;;;;;1.05;0.50;;;18.10;99.90;;;;;;5097394;28;19916;-71
2022/06/28 07:33:59;;;;;;;0.85;0.40;;;18.30;99.90;;;;;;5096735;28;20037;-71
2022/06/28 07:36:25;;;;;;;0.30;0.30;;;18.40;99.90;;;;;;5084703;28;20047;-71
2022/06/28 07:38:51;;;;;;;;;;;18.60;99.90;;;;;;5072028;28;20085;-70
2022/06/28 07:41:17;;;;;;;2.58;0.80;;;18.80;99.90;;;;;;5093072;28;19937;-71
2022/06/28 07:43:43;;;;;;;3.05;0.95;;;18.80;99.90;;;;;;5077580;28;20043;-72
2022/06/28 07:46:08;;;;;;;;;;;18.90;99.90;;;;;;5087388;28;20139;-71
2022/06/28 07:48:34;;;;;;;1.63;0.55;;;18.80;99.90;;;;;;5089209;28;19923;-71
2022/06/28 07:53:44;;;;;;;1.85;0.65;;;18.80;99.90;;;;;;5082739;28;19985;-71
2022/06/28 07:56:10;;;;;;;;;;;19.00;99.90;;;;;;5087854;28;20047;-70
2022/06/28 07:58:39;;;;;;;3.67;1.00;;;18.80;99.90;;;;;;5083122;28;19934;-70
2022/06/28 08:01:07;;;;;;;2.05;0.60;;;18.40;99.90;;;;;;5081158;28;20093;-70
2022/06/28 08:03:33;;;;;;;1.17;0.45;;;18.20;99.90;;;;;;5081947;28;20056;-70
2022/06/28 08:05:59;;;;;;;;;;;18.20;99.90;;;;;;5081986;28;20044;-70
2022/06/28 08:08:24;;;;;;;0.80;0.43;;;18.50;99.90;;;;;;5080583;28;20366;-70
2022/06/28 08:10:50;;;;;;;;;;;18.70;99.90;;;;;;5075828;28;20144;-70
2022/06/28 08:13:16;;;;;;;0.70;0.30;;;18.90;99.90;;;;;;5081364;28;19927;-70
2022/06/28 08:15:42;;;;;;;;;;;19.40;99.90;;;;;;5060076;28;20131;-70
2022/06/28 08:18:08;;;;;;;1.05;0.50;;;19.70;99.90;;;;;;5077157;28;19959;-71
2022/06/28 08:20:34;;;;;;;1.00;0.30;;;20.00;99.90;;;;;;5079544;28;20145;-70
2022/06/28 08:22:59;;;;;;;;;;;20.20;99.90;;;;;;5081459;28;20530;-70
2022/06/28 08:25:25;;;;;;;1.52;0.40;;;20.60;99.90;;;;;;5079425;28;19965;-71
2022/06/28 08:27:51;;;;;;;1.38;0.40;;;20.90;99.90;;;;;;5075224;28;20043;-70
2022/06/28 08:30:16;;;;;;;;;;;21.00;99.90;;;;;;5089301;28;20055;-71
2022/06/28 08:32:42;;;;;;;2.35;0.60;;;20.80;99.90;;;;;;5065545;28;20375;-71
2022/06/28 08:35:08;;;;;;;1.90;0.40;;;20.70;99.90;;;;;;5080146;28;20044;-70
2022/06/28 08:37:34;;;;;;;1.48;0.40;;;20.80;99.90;;;;;;5087976;28;20036;-71
2022/06/28 08:39:59;;;;;;;0.70;0.30;;;21.10;99.90;;;;;;5056527;28;20055;-70
2022/06/28 08:42:28;;;;;;;1.88;0.60;;;21.40;99.90;;;;;;5081862;28;20040;-71
2022/06/28 08:45:00;;;;;;;1.33;0.45;;;21.50;99.90;;;;;;5083866;28;20551;-70
2022/06/28 08:47:31;;;;;;;1.20;0.43;;;21.80;99.90;;;;;;5082069;28;20136;-70
2022/06/28 08:50:06;;;;;;;0.88;0.30;;;21.80;99.90;;;;;;5082040;28;20044;-70
2022/06/28 08:52:37;;;;;;;0.85;0.40;;;21.60;99.90;;;;;;5085882;28;20059;-70
2022/06/28 08:55:06;;;;;;;0.90;0.40;;;21.60;99.90;;;;;;5108237;28;20044;-70
2022/06/28 08:57:33;;;;;;;1.27;0.40;;;21.40;99.90;;;;;;5088899;28;20119;-70
2022/06/28 08:59:59;;;;;;;1.60;0.45;;;21.50;99.90;;;;;;5088422;28;20091;-71
2022/06/28 09:02:25;;;;;;;2.90;0.82;;;21.40;99.90;;;;;;5089058;28;20125;-71
2022/06/28 09:04:53;;;;;;;1.42;0.40;;;21.20;99.90;;;;;;5075619;28;20506;-70
2022/06/28 09:07:20;;;;;;;1.55;0.65;;;21.70;99.90;;;;;;5072029;28;20127;-71
2022/06/28 09:09:46;;;;;;;1.02;0.45;;;21.60;99.90;;;;;;5092022;28;20083;-71
2022/06/28 09:12:13;;;;;;;1.42;0.40;;;22.00;99.90;;;;;;5092187;28;20048;-71
2022/06/28 09:14:39;;;;;;;1.40;0.40;;;21.70;99.90;;;;;;5075392;28;20456;-71
2022/06/28 09:17:28;;;;;;;1.55;0.30;;;21.70;99.90;;;;;;5095679;28;20036;-71
2022/06/28 09:20:04;;;;;;;2.40;0.63;;;21.20;99.90;;;;;;5100853;28;20128;-71
2022/06/28 09:22:29;;;;;;;;;;;20.80;99.90;;;;;;5092503;28;20123;-70
2022/06/28 09:24:55;;;;;;;1.17;0.40;;;20.40;99.90;;;;;;5074943;28;20359;-71
2022/06/28 09:27:48;;;;;;;2.08;0.50;;;20.40;99.90;;;;;;5094869;28;20040;-71
2022/06/28 09:30:13;;;;;;;1.48;0.60;;;20.30;99.90;;;;;;5072994;28;20491;-71
2022/06/28 09:32:40;;;;;;;0.68;0.30;;;20.20;99.90;;;;;;5091817;28;20062;-70
2022/06/28 09:35:12;;;;;;;1.60;0.50;;;20.20;99.90;;;;;;5091839;28;20188;-71
2022/06/28 09:37:50;;;;;;;1.60;0.57;;;20.00;99.90;;;;;;5091698;28;20040;-70
2022/06/28 09:40:25;;;;;;;1.65;0.52;;;19.90;99.90;;;;;;5082290;28;20442;-70
2022/06/28 09:43:13;;;;;;;1.02;0.50;;;19.70;99.90;;;;;;5087977;28;20048;-70
2022/06/28 09:45:46;;;;;;;2.22;0.85;;;19.60;99.90;;;;;;5091686;28;20441;-71
2022/06/28 09:48:20;;;;;;;2.00;0.77;;;19.50;99.90;;;;;;5068079;28;20037;-70
2022/06/28 09:50:46;;;;;;;4.65;1.27;;;19.50;99.90;;;;;;5082996;28;20039;-71
2022/06/28 09:53:14;;;;;;;4.15;0.90;;;19.80;99.90;;;;;;5094161;28;20047;-71
2022/06/28 09:55:41;;;;;;;1.75;0.70;;;20.00;99.90;;;;;;5092320;28;20051;-70
2022/06/28 09:58:08;;;;;;;2.03;0.93;;;20.50;99.90;;;;;;5095507;28;20491;-70
2022/06/28 10:00:39;;;;;;;2.38;0.70;;;20.80;99.90;;;;;;5090737;28;20054;-70
2022/06/28 10:03:05;;;;;;;3.38;1.13;;;20.80;99.90;;;;;;5088893;28;20051;-71
2022/06/28 10:05:32;;;;;;;2.75;0.95;;;20.70;99.90;;;;;;5077484;28;20051;-71
2022/06/28 10:07:59;;;;;;;2.05;0.70;;;20.50;99.90;;;;;;5098011;28;20119;-71
2022/06/28 10:10:25;;;;;;;0.98;0.50;;;20.40;99.90;;;;;;5089847;28;20166;-70
2022/06/28 10:15:38;;;;;;;1.50;0.47;;;20.90;99.90;;;;;;5078161;28;20514;-70
2022/06/28 10:18:25;;;;;;;1.98;0.60;;;21.40;99.90;;;;;;5098481;28;20051;-70
2022/06/28 10:20:50;;;;;;;1.35;0.40;;;21.80;99.90;;;;;;5080934;28;20032;-71
2022/06/28 10:23:37;;;;;;;2.45;0.70;;;21.90;99.00;;;;;;5088243;28;20051;-71
2022/06/28 10:26:26;;;;;;;1.55;0.40;;;22.10;99.90;;;;;;5062607;28;20032;-70
2022/06/28 10:29:02;;;;;;;1.77;0.60;;;22.50;98.60;;;;;;5065225;28;20171;-71
2022/06/28 10:31:30;;;;;;;1.67;0.45;;;22.60;96.40;;;;;;5092127;28;20117;-71
2022/06/28 10:33:59;;;;;;;1.38;0.57;;;22.70;95.20;;;;;;5091349;28;20060;-70
2022/06/28 10:36:27;;;;;;;1.73;0.82;;;22.60;96.00;;;;;;5091221;28;20052;-70
2022/06/28 10:39:08;;;;;;;2.25;0.60;;;22.70;95.60;;;;;;5094150;28;20047;-70
2022/06/28 10:41:40;;;;;;;2.15;0.52;;;23.00;96.30;;;;;;5091773;28;20044;-71
2022/06/28 10:44:15;;;;;;;2.30;0.73;;;22.80;94.00;;;;;;5089386;28;20249;-70
2022/06/28 10:46:47;;;;;;;1.65;0.65;;;23.10;94.80;;;;;;5085095;28;20050;-70
2022/06/28 10:49:13;;;;;;;2.70;0.80;;;23.20;95.00;;;;;;5068194;28;20069;-70
2022/06/28 10:52:08;;;;;;;2.53;0.75;;;22.70;94.40;;;;;;5080472;28;20086;-70
2022/06/28 10:54:34;;;;;;;1.88;0.60;;;22.60;95.30;;;;;;5082374;28;20118;-70
2022/06/28 10:57:00;;;;;;;1.42;0.47;;;23.00;94.60;;;;;;5077666;28;20039;-70
2022/06/28 10:59:37;;;;;;;1.58;0.50;;;23.40;94.90;;;;;;5089116;28;20058;-71
2022/06/28 11:02:03;;;;;;;2.38;0.60;;;23.70;95.20;;;;;;5081784;28;20091;-70
2022/06/28 11:04:30;;;;;;;2.13;0.70;;;23.60;93.90;;;;;;5075077;28;20171;-71
2022/06/28 11:07:01;;;;;;;0.73;0.40;;;23.60;94.30;;;;;;5099389;27;20105;-70
2022/06/28 11:09:35;;;;;;;0.60;0.40;;;23.40;94.40;;;;;;5091451;28;20048;-71
2022/06/28 11:12:05;;;;;;;1.90;0.75;;;23.40;94.80;;;;;;5084409;28;20040;-70
2022/06/28 11:14:32;;;;;;;2.30;0.52;;;23.70;95.80;;;;;;5087605;28;20123;-70
2022/06/28 11:16:59;;;;;;;1.38;0.40;;;23.90;94.40;;;;;;5087394;28;20501;-71
2022/06/28 11:19:25;;;;;;;1.00;0.30;;;24.00;94.30;;;;;;5068454;28;20040;-70
2022/06/28 11:21:55;;;;;;;1.90;0.52;;;24.30;93.80;;;;;;5083312;28;20161;-71
2022/06/28 11:24:23;;;;;;;1.15;0.50;;;24.60;94.00;;;;;;5070479;28;20036;-71
2022/06/28 11:29:34;;;;;;;0.90;0.30;;;24.60;93.50;;;;;;5081480;28;20748;-71
2022/06/28 11:32:00;;;;;;;1.38;0.40;;;24.20;92.00;;;;;;5083938;28;20044;-71
2022/06/28 11:34:25;;;;;;;1.65;0.60;;;24.10;92.70;;;;;;5070164;28;20048;-70
2022/06/28 11:36:55;;;;;;;1.23;0.60;;;23.70;92.40;;;;;;5086957;28;20039;-76
2022/06/28 11:39:23;;;;;;;1.20;0.40;;;23.20;92.80;;;;;;5077021;28;20079;-71
2022/06/28 11:41:51;;;;;;;1.55;0.57;;;22.70;93.50;;;;;;5083855;28;20032;-70
2022/06/28 11:44:18;;;;;;;0.82;0.40;;;23.00;93.80;;;;;;5088085;28;20115;-71
2022/06/28 11:46:49;;;;;;;1.50;0.70;;;23.30;93.70;;;;;;5091354;28;20052;-70
2022/06/28 11:49:29;;;;;;;1.85;0.60;;;23.50;94.40;;;;;;5080764;28;20044;-70
2022/06/28 11:51:55;;;;;;;1.63;0.28;;;23.80;93.20;;;;;;5063369;28;20068;-71
2022/06/28 11:54:21;;;;;;;2.28;0.77;;;24.10;92.60;;;;;;5080692;28;20074;-71
2022/06/28 11:56:48;;;;;;;1.02;0.50;;;24.00;93.00;;;;;;5065883;28;20040;-71
2022/06/28 11:59:15;;;;;;;1.50;0.50;;;24.50;93.10;;;;;;5080341;28;20087;-71
2022/06/28 12:01:42;;;;;;;1.55;0.40;;;24.60;92.20;;;;;;5078340;28;20636;-71
2022/06/28 12:04:09;;;;;;;0.77;0.30;;;24.70;91.40;;;;;;5086103;28;20051;-71
2022/06/28 12:06:39;;;;;;;0.90;0.40;;;25.10;92.40;;;;;;5087105;28;20517;-71
2022/06/28 12:09:07;;;;;;;2.03;0.50;;;24.90;91.00;;;;;;5087731;28;20051;-71
2022/06/28 12:11:56;;;;;;;1.80;0.60;;;24.70;91.60;;;;;;5085770;28;20055;-71
2022/06/28 12:14:29;;;;;;;0.47;0.30;;;24.80;91.40;;;;;;5086744;28;20040;-71
2022/06/28 12:16:55;;;;;;;0.60;0.30;;;25.30;90.40;;;;;;5066475;28;20070;-71
2022/06/28 12:19:23;;;;;;;0.57;0.35;;;25.60;90.80;;;;;;5091325;28;20075;-70
2022/06/28 12:22:01;;;;;;;1.17;0.40;;;25.70;90.60;;;;;;5091706;28;20031;-71
2022/06/28 12:24:37;;;;;;;0.80;0.40;;;25.90;89.70;;;;;;5092652;28;20036;-70
2022/06/28 12:27:03;;;;;;;0.82;0.30;;;25.50;87.30;;;;;;5091539;28;20166;-71
2022/06/28 12:29:28;;;;;;;0.70;0.40;;;24.90;88.30;;;;;;5090361;28;20114;-71
2022/06/28 12:31:54;;;;;;;0.63;0.30;;;24.60;88.80;;;;;;5070617;28;20527;-70
2022/06/28 12:34:20;;;;;;;0.40;0.22;;;24.50;89.30;;;;;;5070539;28;20440;-71
2022/06/28 12:36:46;;;;;;;0.75;0.40;;;24.30;90.00;;;;;;5089965;28;20208;-70
2022/06/28 12:39:11;;;;;;;0.32;0.20;;;23.90;87.40;;;;;;5090846;28;20118;-71
2022/06/28 12:41:37;;;;;;;0.52;0.20;;;23.70;90.30;;;;;;5071659;28;20059;-70
2022/06/28 12:44:03;;;;;;;1.13;0.40;;;23.50;90.20;;;;;;5090839;28;20047;-70
2022/06/28 12:46:29;;;;;;;0.52;0.28;;;23.30;90.60;;;;;;5094602;28;20405;-71
2022/06/28 12:48:55;;;;;;;0.32;0.28;;;23.20;90.00;;;;;;5069277;28;20063;-71
2022/06/28 12:51:21;;;;;;;0.50;0.32;;;23.10;91.10;;;;;;5093117;28;20032;-70
2022/06/28 12:53:46;;;;;;;1.17;0.30;;;23.20;92.10;;;;;;5088518;28;20039;-70
2022/06/28 12:56:15;;;;;;;0.73;0.20;;;23.70;91.20;;;;;;5093068;27;20058;-71
2022/06/28 12:58:42;;;;;;;0.60;0.40;;;24.20;91.30;;;;;;5089904;28;20051;-71
2022/06/28 13:01:08;;;;;;;0.73;0.30;;;24.80;91.40;;;;;;5090290;28;20043;-70
2022/06/28 13:03:34;;;;;;;0.40;0.30;;;24.70;88.40;;;;;;5091650;28;20063;-71
2022/06/28 13:05:59;;;;;;;0.70;0.30;;;24.60;88.50;;;;;;5075164;28;20028;-71
2022/06/28 13:08:25;;;;;;;0.50;0.20;;;24.40;88.60;;;;;;5089905;28;20051;-71